createdAt,value
2023-11-15T00:01:38.532Z,100724.59
2023-11-15T00:04:06.889Z,100729.88
2023-11-15T00:06:34.774Z,100736.19
2023-11-15T00:09:06.359Z,100728.47
2023-11-15T00:11:35.346Z,100737.34
2023-11-15T00:14:03.640Z,100742.59
2023-11-15T00:16:31.530Z,100738.31
2023-11-15T00:18:59.450Z,100739.06
2023-11-15T00:21:27.936Z,100736.94
2023-11-15T00:23:55.769Z,100724.03
2023-11-15T00:26:25.352Z,100733.63
2023-11-15T00:28:53.866Z,100744.03
2023-11-15T00:31:21.681Z,100745.75
2023-11-15T00:33:49.589Z,100748.22
2023-11-15T00:36:20.639Z,100753.06
2023-11-15T00:38:50.639Z,100749.38
2023-11-15T00:41:19.613Z,100756.03
2023-11-15T00:43:48.998Z,100761.78
2023-11-15T00:46:17.202Z,100770.19
2023-11-15T00:48:45.001Z,100778.06
2023-11-15T00:51:13.384Z,100769.94
2023-11-15T00:53:41.282Z,100781.63
2023-11-15T00:56:09.769Z,100787.63
2023-11-15T00:58:40.462Z,100793.06
2023-11-15T01:01:12.268Z,100785.91
2023-11-15T01:03:42.849Z,100790.50
2023-11-15T01:06:10.754Z,100791.66
2023-11-15T01:08:38.662Z,100789.06
2023-11-15T01:11:07.755Z,100805.81
2023-11-15T01:13:35.583Z,100807.53
2023-11-15T01:16:03.807Z,100803.50
2023-11-15T01:18:34.648Z,100811.50
2023-11-15T01:21:02.542Z,100805.06
2023-11-15T01:23:31.202Z,100813.38
2023-11-15T01:25:59.081Z,100808.06
2023-11-15T01:28:26.916Z,100818.38
2023-11-15T01:30:55.807Z,100824.66
2023-11-15T01:33:23.640Z,100828.09
2023-11-15T01:35:53.831Z,100838.50
2023-11-15T01:38:21.885Z,100832.97
2023-11-15T01:40:49.636Z,100840.94
2023-11-15T01:43:17.995Z,100853.81
2023-11-15T01:45:47.938Z,100847.94
2023-11-15T01:48:17.438Z,100855.53
2023-11-15T01:50:46.160Z,100861.53
2023-11-15T01:53:15.874Z,100863.09
2023-11-15T01:55:46.491Z,100863.25
2023-11-15T01:58:15.587Z,100872.25
2023-11-15T02:00:43.882Z,100872.13
2023-11-15T02:03:13.476Z,100871.41
2023-11-15T02:05:41.394Z,100871.25
2023-11-15T02:08:10.300Z,100879.13
2023-11-15T02:10:39.705Z,100886.69
2023-11-15T02:13:21.702Z,100879.69
2023-11-15T02:15:49.535Z,100891.81
2023-11-15T02:18:18.787Z,100887.84
2023-11-15T02:20:46.674Z,100887.13
2023-11-15T02:23:15.388Z,100895.84
2023-11-15T02:25:44.534Z,100896.00
2023-11-15T02:28:12.319Z,100892.13
2023-11-15T02:30:40.245Z,100893.13
2023-11-15T02:33:08.076Z,100903.09
2023-11-15T02:35:36.025Z,100908.84
2023-11-15T02:38:04.127Z,100918.97
2023-11-15T02:40:31.969Z,100919.84
2023-11-15T02:43:01.497Z,100929.72
2023-11-15T02:45:29.288Z,100921.44
2023-11-15T02:47:57.144Z,100925.00
2023-11-15T02:50:25.306Z,100926.00
2023-11-15T02:52:53.090Z,100917.84
2023-11-15T02:55:20.868Z,100928.00
2023-11-15T02:57:48.642Z,100918.00
2023-11-15T03:00:18.782Z,100921.59
2023-11-15T03:02:46.764Z,100931.88
2023-11-15T03:05:14.628Z,100925.88
2023-11-15T03:07:42.382Z,100925.34
2023-11-15T03:10:11.126Z,100923.72
2023-11-15T03:12:39.234Z,100929.78
2023-11-15T03:15:07.810Z,100934.31
2023-11-15T03:17:37.351Z,100935.44
2023-11-15T03:20:06.696Z,100933.47
2023-11-15T03:22:34.791Z,100935.91
2023-11-15T03:25:02.688Z,100935.91
2023-11-15T03:27:30.470Z,100939.63
2023-11-15T03:29:58.342Z,100939.88
2023-11-15T03:32:26.269Z,100938.16
2023-11-15T03:34:55.512Z,100941.47
2023-11-15T03:37:24.286Z,100941.34
2023-11-15T03:39:52.112Z,100944.78
2023-11-15T03:42:19.884Z,100944.34
2023-11-15T03:44:47.746Z,100945.91
2023-11-15T03:47:15.794Z,100960.19
2023-11-15T03:49:43.594Z,100952.78
2023-11-15T03:52:12.744Z,100963.78
2023-11-15T03:54:40.665Z,100964.63
2023-11-15T03:57:10.034Z,100963.66
2023-11-15T03:59:38.000Z,100967.34
2023-11-15T04:02:06.055Z,100970.94
2023-11-15T04:04:34.713Z,100972.53
2023-11-15T04:07:04.367Z,100967.94
2023-11-15T04:09:34.877Z,100978.81
2023-11-15T04:12:02.919Z,100975.09
2023-11-15T04:14:31.311Z,100975.38
2023-11-15T04:16:59.307Z,100982.50
2023-11-15T04:19:27.056Z,100986.84
2023-11-15T04:22:05.419Z,100989.41
2023-11-15T04:24:41.568Z,100988.81
2023-11-15T04:27:09.404Z,100998.25
2023-11-15T04:29:38.913Z,100989.66
2023-11-15T04:32:07.298Z,100999.38
2023-11-15T04:34:35.091Z,100997.56
2023-11-15T04:37:02.973Z,101012.84
2023-11-15T04:39:30.762Z,101005.84
2023-11-15T04:41:59.893Z,101014.44
2023-11-15T04:44:28.790Z,101017.25
2023-11-15T04:46:56.648Z,101023.25
2023-11-15T04:49:24.484Z,101024.53
2023-11-15T04:51:52.800Z,101027.00
2023-11-15T04:54:20.601Z,101032.44
2023-11-15T04:56:48.505Z,101031.25
2023-11-15T04:59:17.674Z,101037.53
2023-11-15T05:01:47.131Z,101041.91
2023-11-15T05:04:15.745Z,101046.50
2023-11-15T05:06:44.163Z,101034.75
2023-11-15T05:09:11.997Z,101044.63
2023-11-15T05:11:40.362Z,101046.34
2023-11-15T05:14:08.442Z,101043.34
2023-11-15T05:16:37.637Z,101042.66
2023-11-15T05:19:05.841Z,101053.63
2023-11-15T05:21:33.777Z,101047.50
2023-11-15T05:24:01.681Z,101049.03
2023-11-15T05:26:30.090Z,101052.19
2023-11-15T05:28:59.166Z,101052.75
2023-11-15T05:31:27.097Z,101064.34
2023-11-15T05:33:56.809Z,101063.31
2023-11-15T05:36:24.588Z,101066.19
2023-11-15T05:38:52.508Z,101058.75
2023-11-15T05:41:21.010Z,101055.91
2023-11-15T05:43:49.655Z,101058.63
2023-11-15T05:46:17.596Z,101072.53
2023-11-15T05:48:45.439Z,101064.06
2023-11-15T05:51:14.698Z,101067.66
2023-11-15T05:53:43.064Z,101080.34
2023-11-15T05:56:11.607Z,101069.22
2023-11-15T05:58:40.365Z,101070.06
2023-11-15T06:01:08.787Z,101067.50
2023-11-15T06:03:36.679Z,101071.94
2023-11-15T06:06:05.379Z,101074.19
2023-11-15T06:08:34.556Z,101070.63
2023-11-15T06:11:02.391Z,101076.19
2023-11-15T06:13:30.211Z,101075.59
2023-11-15T06:15:57.990Z,101073.88
2023-11-15T06:18:25.956Z,101084.00
2023-11-15T06:20:53.880Z,101077.28
2023-11-15T06:23:21.696Z,101081.25
2023-11-15T06:25:51.201Z,101092.84
2023-11-15T06:28:20.097Z,101090.97
2023-11-15T06:30:48.933Z,101091.25
2023-11-15T06:33:17.044Z,101091.50
2023-11-15T06:35:45.849Z,101094.38
2023-11-15T06:38:15.121Z,101093.38
2023-11-15T06:40:43.076Z,101104.09
2023-11-15T06:43:12.982Z,101106.34
2023-11-15T06:45:40.912Z,101107.34
2023-11-15T06:48:08.802Z,101110.66
2023-11-15T06:50:38.660Z,101123.09
2023-11-15T06:53:06.990Z,101125.66
2023-11-15T06:55:36.394Z,101120.00
2023-11-15T06:58:04.562Z,101131.69
2023-11-15T07:00:34.286Z,101140.56
2023-11-15T07:03:04.819Z,101139.72
2023-11-15T07:05:33.299Z,101146.28
2023-11-15T07:08:01.370Z,101155.28
2023-11-15T07:10:30.963Z,101152.44
2023-11-15T07:13:01.701Z,101160.56
2023-11-15T07:15:29.561Z,101160.31
2023-11-15T07:17:58.975Z,101154.88
2023-11-15T07:20:27.388Z,101158.72
2023-11-15T07:22:55.260Z,101162.16
2023-11-15T07:25:23.687Z,101163.75
2023-11-15T07:27:53.396Z,101164.63
2023-11-15T07:30:23.233Z,101178.19
2023-11-15T07:32:51.353Z,101176.47
2023-11-15T07:35:21.092Z,101171.44
2023-11-15T07:37:48.969Z,101173.00
2023-11-15T07:40:16.972Z,101184.91
2023-11-15T07:42:46.512Z,101182.28
2023-11-15T07:45:15.365Z,101184.00
2023-11-15T07:47:45.998Z,101185.75
2023-11-15T07:50:16.334Z,101191.03
2023-11-15T07:52:46.564Z,101197.72
2023-11-15T07:55:14.524Z,101204.00
2023-11-15T07:57:45.640Z,101195.88
2023-11-15T08:00:14.677Z,101201.19
2023-11-15T08:02:43.909Z,101209.72
2023-11-15T08:05:11.880Z,101215.25
2023-11-15T08:07:39.714Z,101211.25
2023-11-15T08:10:13.807Z,101213.34
2023-11-15T08:12:42.725Z,101224.34
2023-11-15T08:15:13.914Z,101225.56
2023-11-15T08:17:42.473Z,101227.13
2023-11-15T08:20:11.689Z,101226.00
2023-11-15T08:22:43.095Z,101229.31
2023-11-15T08:25:14.108Z,101235.34
2023-11-15T08:27:43.209Z,101228.66
2023-11-15T08:30:14.060Z,101237.25
2023-11-15T08:32:43.841Z,101239.59
2023-11-15T08:35:12.105Z,101233.31
2023-11-15T08:37:40.159Z,101240.03
2023-11-15T08:40:22.514Z,101245.47
2023-11-15T08:42:58.422Z,101250.66
2023-11-15T08:45:26.894Z,101251.19
2023-11-15T08:47:58.596Z,101252.16
2023-11-15T08:50:28.463Z,101254.88
2023-11-15T08:52:57.699Z,101249.72
2023-11-15T08:55:25.645Z,101259.44
2023-11-15T08:57:53.418Z,101252.16
2023-11-15T09:00:22.837Z,101260.19
2023-11-15T09:02:51.780Z,101260.91
2023-11-15T09:05:23.706Z,101253.91
2023-11-15T09:07:51.700Z,101259.19
2023-11-15T09:10:19.589Z,101251.78
2023-11-15T09:12:47.705Z,101254.59
2023-11-15T09:15:15.966Z,101265.22
2023-11-15T09:17:47.794Z,101263.88
2023-11-15T09:20:20.882Z,101273.31
2023-11-15T09:22:50.696Z,101270.06
2023-11-15T09:25:25.144Z,101265.53
2023-11-15T09:27:55.549Z,101265.84
2023-11-15T09:30:26.214Z,101261.72
2023-11-15T09:32:56.399Z,101267.63
2023-11-15T09:35:29.187Z,101271.19
2023-11-15T09:37:59.982Z,101275.09
2023-11-15T09:40:28.811Z,101275.09
2023-11-15T09:43:00.319Z,101276.81
2023-11-15T09:45:28.337Z,101275.41
2023-11-15T09:48:02.209Z,101265.72
2023-11-15T09:50:34.691Z,101274.19
2023-11-15T09:53:06.516Z,101274.03
2023-11-15T09:55:36.180Z,101277.38
2023-11-15T09:58:07.298Z,101269.66
2023-11-15T10:00:35.164Z,101263.13
2023-11-15T10:03:05.393Z,101274.00
2023-11-15T10:05:33.799Z,101271.88
2023-11-15T10:08:09.849Z,101263.72
2023-11-15T10:10:37.816Z,101261.56
2023-11-15T10:13:13.477Z,101269.19
2023-11-15T10:15:41.744Z,101288.06
2023-11-15T10:18:12.914Z,101285.50
2023-11-15T10:20:42.420Z,101284.59
2023-11-15T10:23:12.293Z,101295.63
2023-11-15T10:25:49.228Z,101280.03
2023-11-15T10:28:18.059Z,101281.03
2023-11-15T10:30:51.999Z,101283.75
2023-11-15T10:33:21.585Z,101295.78
2023-11-15T10:35:50.405Z,101287.06
2023-11-15T10:38:21.294Z,101283.47
2023-11-15T10:40:53.294Z,101284.78
2023-11-15T10:43:21.665Z,101283.78
2023-11-15T10:45:52.489Z,101279.31
2023-11-15T10:48:27.790Z,101286.75
2023-11-15T10:50:59.216Z,101282.59
2023-11-15T10:53:28.349Z,101283.44
2023-11-15T10:55:59.828Z,101280.06
2023-11-15T10:58:28.593Z,101295.09
2023-11-15T11:00:57.738Z,101286.22
2023-11-15T11:03:29.543Z,101291.00
2023-11-15T11:06:05.435Z,101289.84
2023-11-15T11:08:42.729Z,101291.13
2023-11-15T11:11:23.569Z,101288.56
2023-11-15T11:14:18.144Z,101303.75
2023-11-15T11:16:46.255Z,101300.47
2023-11-15T11:19:20.407Z,101299.63
2023-11-15T11:22:10.856Z,101299.69
2023-11-15T11:24:46.703Z,101299.09
2023-11-15T11:27:31.609Z,101302.66
2023-11-15T11:30:22.259Z,101299.91
2023-11-15T11:32:51.909Z,101300.50
2023-11-15T11:35:36.032Z,101297.97
2023-11-15T11:38:05.289Z,101297.91
2023-11-15T11:40:40.132Z,101303.34
2023-11-15T11:43:31.548Z,101302.19
2023-11-15T11:46:13.258Z,101307.19
2023-11-15T11:48:41.184Z,101304.03
2023-11-15T11:51:10.657Z,101311.00
2023-11-15T11:53:40.544Z,101305.00
2023-11-15T11:56:10.082Z,101306.56
2023-11-15T11:58:39.459Z,101306.78
2023-11-15T12:01:09.219Z,101309.84
2023-11-15T12:03:41.042Z,101312.25
2023-11-15T12:06:12.380Z,101308.53
2023-11-15T12:08:41.833Z,101309.47
2023-11-15T12:11:11.631Z,101310.16
2023-11-15T12:13:48.890Z,101305.84
2023-11-15T12:16:21.401Z,101310.72
2023-11-15T12:19:04.648Z,101301.41
2023-11-15T12:21:37.726Z,101298.13
2023-11-15T12:24:11.153Z,101300.84
2023-11-15T12:26:46.696Z,101300.16
2023-11-15T12:29:22.764Z,101303.59
2023-11-15T12:31:52.240Z,101303.03
2023-11-15T12:34:21.095Z,101305.47
2023-11-15T12:36:52.292Z,101316.09
2023-11-15T12:39:22.741Z,101315.69
2023-11-15T12:41:53.506Z,101323.72
2023-11-15T12:44:21.604Z,101314.97
2023-11-15T12:46:52.509Z,101326.97
2023-11-15T12:49:24.769Z,101322.69
2023-11-15T12:51:54.412Z,101322.25
2023-11-15T12:54:22.209Z,101324.56
2023-11-15T12:57:04.641Z,101323.56
2023-11-15T12:59:37.630Z,101316.81
2023-11-15T13:02:06.137Z,101329.44
2023-11-15T13:04:47.813Z,101331.16
2023-11-15T13:07:17.736Z,101326.94
2023-11-15T13:09:46.271Z,101332.72
2023-11-15T13:12:23.637Z,101329.41
2023-11-15T13:14:51.594Z,101330.84
2023-11-15T13:17:19.548Z,101334.03
2023-11-15T13:19:47.367Z,101331.00
2023-11-15T13:22:17.037Z,101339.91
2023-11-15T13:24:49.629Z,101335.44
2023-11-15T13:27:21.234Z,101341.75
2023-11-15T13:29:49.465Z,101342.63
2023-11-15T13:32:17.408Z,101336.59
2023-11-15T13:34:45.940Z,101341.31
2023-11-15T13:37:14.361Z,101347.16
2023-11-15T13:39:43.612Z,101337.09
2023-11-15T13:42:11.429Z,101348.44
2023-11-15T13:44:39.650Z,101341.66
2023-11-15T13:47:08.584Z,101342.66
2023-11-15T13:49:36.411Z,101347.66
2023-11-15T13:52:04.184Z,101339.09
2023-11-15T13:54:32.016Z,101343.69
2023-11-15T13:57:01.185Z,101345.66
2023-11-15T13:59:32.957Z,101337.34
2023-11-15T14:02:00.875Z,101360.66
2023-11-15T14:04:28.663Z,101367.78
2023-11-15T14:06:56.807Z,101362.03
2023-11-15T14:09:25.938Z,101371.19
2023-11-15T14:11:53.822Z,101369.84
2023-11-15T14:14:23.809Z,101367.41
2023-11-15T14:16:53.338Z,101370.00
2023-11-15T14:19:23.510Z,101372.13
2023-11-15T14:21:52.753Z,101376.72
2023-11-15T14:24:21.354Z,101378.56
2023-11-15T14:26:49.381Z,101372.13
2023-11-15T14:29:22.103Z,101377.34
2023-11-15T14:31:51.401Z,101379.38
2023-11-15T14:34:19.257Z,101382.88
2023-11-15T14:36:47.338Z,101386.34
2023-11-15T14:39:16.118Z,101391.78
2023-11-15T14:41:46.918Z,101398.66
2023-11-15T14:44:14.847Z,101386.50
2023-11-15T14:46:43.083Z,101394.09
2023-11-15T14:49:13.863Z,101400.03
2023-11-15T14:51:41.784Z,101403.44
2023-11-15T14:54:11.374Z,101405.41
2023-11-15T14:56:39.986Z,101409.53
2023-11-15T14:59:07.787Z,101414.09
2023-11-15T15:01:35.624Z,101405.09
2023-11-15T15:04:05.514Z,101404.84
2023-11-15T15:06:34.936Z,101404.75
2023-11-15T15:09:02.919Z,101411.28
2023-11-15T15:11:31.722Z,101406.00
2023-11-15T15:13:59.554Z,101405.88
2023-11-15T15:16:27.489Z,101408.84
2023-11-15T15:18:55.385Z,101413.81
2023-11-15T15:21:23.467Z,101409.25
2023-11-15T15:23:52.822Z,101405.31
2023-11-15T15:26:24.068Z,101411.75
2023-11-15T15:28:55.004Z,101412.75
2023-11-15T15:31:22.900Z,101415.56
2023-11-15T15:33:50.758Z,101419.03
2023-11-15T15:36:21.396Z,101410.03
2023-11-15T15:38:52.061Z,101410.88
2023-11-15T15:41:23.318Z,101418.06
2023-11-15T15:43:51.244Z,101414.88
2023-11-15T15:46:19.186Z,101415.56
2023-11-15T15:48:47.538Z,101422.13
2023-11-15T15:51:15.497Z,101419.16
2023-11-15T15:53:43.652Z,101420.19
2023-11-15T15:56:11.554Z,101423.00
2023-11-15T15:58:40.696Z,101432.66
2023-11-15T16:01:09.257Z,101434.78
2023-11-15T16:03:37.193Z,101433.78
2023-11-15T16:06:05.890Z,101433.91
2023-11-15T16:08:33.872Z,101435.63
2023-11-15T16:11:03.358Z,101438.50
2023-11-15T16:13:33.695Z,101443.19
2023-11-15T16:16:03.872Z,101436.00
2023-11-15T16:18:31.816Z,101437.97
2023-11-15T16:21:00.717Z,101435.41
2023-11-15T16:23:28.536Z,101436.78
2023-11-15T16:25:58.557Z,101438.75
2023-11-15T16:28:26.520Z,101437.78
2023-11-15T16:30:54.346Z,101438.63
2023-11-15T16:33:23.614Z,101442.22
2023-11-15T16:35:51.649Z,101450.38
2023-11-15T16:38:19.537Z,101439.59
2023-11-15T16:40:47.368Z,101435.56
2023-11-15T16:43:15.304Z,101434.81
2023-11-15T16:45:43.095Z,101435.81
2023-11-15T16:48:11.024Z,101440.25
2023-11-15T16:50:43.407Z,101446.53
2023-11-15T16:53:13.064Z,101443.81
2023-11-15T16:55:41.688Z,101451.09
2023-11-15T16:58:10.727Z,101453.97
2023-11-15T17:00:38.777Z,101445.81
2023-11-15T17:03:06.661Z,101444.09
2023-11-15T17:05:34.547Z,101435.06
2023-11-15T17:08:06.937Z,101438.03
2023-11-15T17:10:36.054Z,101445.19
2023-11-15T17:13:04.428Z,101443.34
2023-11-15T17:15:32.399Z,101452.59
2023-11-15T17:18:00.431Z,101458.91
2023-11-15T17:20:28.271Z,101460.50
2023-11-15T17:22:56.037Z,101463.94
2023-11-15T17:25:25.269Z,101466.53
2023-11-15T17:27:53.996Z,101473.31
2023-11-15T17:30:23.192Z,101467.16
2023-11-15T17:32:51.440Z,101473.06
2023-11-15T17:35:19.452Z,101478.50
2023-11-15T17:37:47.245Z,101478.50
2023-11-15T17:40:16.371Z,101476.78
2023-11-15T17:42:45.601Z,101473.34
2023-11-15T17:45:13.838Z,101468.16
2023-11-15T17:47:42.792Z,101479.97
2023-11-15T17:50:11.387Z,101471.00
2023-11-15T17:52:41.784Z,101472.72
2023-11-15T17:55:14.915Z,101465.44
2023-11-15T17:57:44.798Z,101461.13
2023-11-15T18:00:15.218Z,101468.50
2023-11-15T18:02:45.191Z,101465.69
2023-11-15T18:05:14.340Z,101465.69
2023-11-15T18:07:42.387Z,101452.34
2023-11-15T18:10:14.796Z,101461.25
2023-11-15T18:12:43.930Z,101459.25
2023-11-15T18:15:13.697Z,101459.25
2023-11-15T18:17:42.977Z,101456.53
2023-11-15T18:20:15.669Z,101458.28
2023-11-15T18:22:44.406Z,101468.41
2023-11-15T18:25:14.140Z,101472.59
2023-11-15T18:27:44.522Z,101469.63
2023-11-15T18:30:13.641Z,101474.06
2023-11-15T18:32:44.289Z,101470.97
2023-11-15T18:35:12.695Z,101461.50
2023-11-15T18:37:41.433Z,101471.97
2023-11-15T18:40:13.169Z,101471.84
2023-11-15T18:42:41.911Z,101472.47
2023-11-15T18:45:12.343Z,101473.19
2023-11-15T18:47:42.708Z,101464.19
2023-11-15T18:50:12.066Z,101461.72
2023-11-15T18:52:42.295Z,101464.44
2023-11-15T18:55:13.229Z,101472.47
2023-11-15T18:57:42.583Z,101468.66
2023-11-15T19:00:14.429Z,101469.13
2023-11-15T19:02:46.156Z,101461.50
2023-11-15T19:05:15.591Z,101458.78
2023-11-15T19:07:43.553Z,101471.34
2023-11-15T19:10:12.651Z,101465.66
2023-11-15T19:12:41.979Z,101476.53
2023-11-15T19:15:12.811Z,101471.84
2023-11-15T19:17:43.522Z,101469.75
2023-11-15T19:20:16.176Z,101471.00
2023-11-15T19:22:44.105Z,101472.22
2023-11-15T19:25:12.283Z,101473.44
2023-11-15T19:27:40.323Z,101479.13
2023-11-15T19:30:10.368Z,101478.03
2023-11-15T19:32:38.936Z,101473.34
2023-11-15T19:35:08.832Z,101473.94
2023-11-15T19:37:38.822Z,101472.72
2023-11-15T19:40:10.871Z,101474.44
2023-11-15T19:42:40.432Z,101468.75
2023-11-15T19:45:12.459Z,101482.81
2023-11-15T19:47:41.326Z,101471.25
2023-11-15T19:50:10.240Z,101471.59
2023-11-15T19:52:40.874Z,101475.44
2023-11-15T19:55:09.673Z,101474.44
2023-11-15T19:57:38.362Z,101464.09
2023-11-15T20:00:12.482Z,101467.53
2023-11-15T20:02:46.594Z,101463.47
2023-11-15T20:05:15.614Z,101467.66
2023-11-15T20:07:44.901Z,101466.81
2023-11-15T20:10:14.051Z,101471.25
2023-11-15T20:12:44.367Z,101470.13
2023-11-15T20:15:14.113Z,101487.41
2023-11-15T20:17:42.842Z,101485.53
2023-11-15T20:20:12.008Z,101482.09
2023-11-15T20:22:48.169Z,101475.06
2023-11-15T20:25:21.557Z,101477.88
2023-11-15T20:27:49.566Z,101484.44
2023-11-15T20:30:19.316Z,101485.41
2023-11-15T20:32:48.084Z,101469.63
2023-11-15T20:35:16.530Z,101477.66
2023-11-15T20:37:44.412Z,101473.84
2023-11-15T20:40:16.318Z,101489.25
2023-11-15T20:42:47.924Z,101481.84
2023-11-15T20:45:16.463Z,101478.25
2023-11-15T20:47:44.731Z,101484.78
2023-11-15T20:50:12.944Z,101479.38
2023-11-15T20:52:41.685Z,101475.53
2023-11-15T20:55:11.039Z,101473.56
2023-11-15T20:57:38.985Z,101475.53
2023-11-15T21:00:14.086Z,101475.31
2023-11-15T21:02:42.285Z,101469.66
2023-11-15T21:05:12.628Z,101465.19
2023-11-15T21:07:40.866Z,101463.34
2023-11-15T21:10:10.008Z,101469.66
2023-11-15T21:12:38.762Z,101462.09
2023-11-15T21:15:11.286Z,101462.84
2023-11-15T21:17:38.830Z,101465.44
2023-11-15T21:20:12.285Z,101470.00
2023-11-15T21:22:41.207Z,101471.59
2023-11-15T21:25:12.451Z,101482.19
2023-11-15T21:27:41.091Z,101480.22
2023-11-15T21:30:13.251Z,101473.81
2023-11-15T21:32:42.260Z,101479.47
2023-11-15T21:35:10.767Z,101473.84
2023-11-15T21:37:42.847Z,101470.09
2023-11-15T21:40:15.716Z,101469.88
2023-11-15T21:42:45.737Z,101473.06
2023-11-15T21:45:17.634Z,101471.34
2023-11-15T21:47:47.040Z,101470.00
2023-11-15T21:50:16.706Z,101467.16
2023-11-15T21:52:44.960Z,101469.25
2023-11-15T21:55:13.286Z,101466.53
2023-11-15T21:57:41.126Z,101470.38
2023-11-15T22:00:11.249Z,101474.81
2023-11-15T22:02:40.560Z,101470.13
2023-11-15T22:05:10.648Z,101469.25
2023-11-15T22:07:39.077Z,101476.78
2023-11-15T22:10:10.226Z,101477.28
2023-11-15T22:12:38.146Z,101477.88
2023-11-15T22:15:07.234Z,101473.06
2023-11-15T22:17:35.377Z,101471.72
2023-11-15T22:20:05.010Z,101471.72
2023-11-15T22:22:32.854Z,101475.19
2023-11-15T22:25:00.637Z,101474.81
2023-11-15T22:27:28.475Z,101478.28
2023-11-15T22:29:56.392Z,101478.50
2023-11-15T22:32:26.490Z,101486.41
2023-11-15T22:34:54.606Z,101484.06
2023-11-15T22:37:23.779Z,101483.94
2023-11-15T22:39:51.612Z,101486.03
2023-11-15T22:42:19.552Z,101495.28
2023-11-15T22:44:47.441Z,101493.31
2023-11-15T22:47:15.242Z,101488.63
2023-11-15T22:49:43.106Z,101490.25
2023-11-15T22:52:10.858Z,101491.59
2023-11-15T22:54:41.089Z,101491.34
2023-11-15T22:57:09.026Z,101502.09
2023-11-15T22:59:37.493Z,101503.44
2023-11-15T23:02:05.462Z,101500.22
2023-11-15T23:04:33.693Z,101502.19
2023-11-15T23:07:02.201Z,101489.09
2023-11-15T23:09:30.070Z,101496.03
2023-11-15T23:11:59.315Z,101489.59
2023-11-15T23:14:28.256Z,101495.16
2023-11-15T23:16:56.566Z,101494.53
2023-11-15T23:19:24.398Z,101490.97
2023-11-15T23:21:59.343Z,101480.34
2023-11-15T23:24:31.519Z,101478.75
2023-11-15T23:27:01.180Z,101481.59
2023-11-15T23:29:29.843Z,101487.25
2023-11-15T23:31:58.024Z,101483.56
2023-11-15T23:34:26.045Z,101478.47
2023-11-15T23:36:53.838Z,101482.44
2023-11-15T23:39:23.988Z,101483.78
2023-11-15T23:41:52.069Z,101493.41
2023-11-15T23:44:21.297Z,101487.59
2023-11-15T23:46:52.202Z,101482.78
2023-11-15T23:49:20.791Z,101494.53
2023-11-15T23:51:47.655Z,101500.94
2023-11-15T23:54:15.499Z,101497.47
2023-11-15T23:56:43.698Z,101499.94
2023-11-15T23:59:11.882Z,101498.22
